sensor_id;sensor_type;location;lat;lon;timestamp;P1;durP1;ratioP1;P2;durP2;ratioP2
42666;SDS011;28280;49.646;14.130;2022-09-09T07:26:30;4.75;;;3.55;;
42666;SDS011;28280;49.646;14.130;2022-09-09T07:32:04;8.57;;;3.00;;
42666;SDS011;28280;49.646;14.130;2022-09-09T07:37:39;6.82;;;2.72;;
42666;SDS011;28280;49.646;14.130;2022-09-09T07:43:12;2.95;;;2.47;;
42666;SDS011;28280;49.646;14.130;2022-09-09T07:48:48;4.70;;;2.70;;
42666;SDS011;28280;49.646;14.130;2022-09-09T07:54:29;5.20;;;2.55;;
42666;SDS011;28280;49.646;14.130;2022-09-09T08:00:03;6.78;;;2.70;;
42666;SDS011;28280;49.646;14.130;2022-09-09T08:05:41;4.57;;;1.67;;
42666;SDS011;28280;49.646;14.130;2022-09-09T08:11:14;9.50;;;2.13;;
42666;SDS011;28280;49.646;14.130;2022-09-09T08:16:47;10.88;;;2.10;;
42666;SDS011;28280;49.646;14.130;2022-09-09T08:22:23;4.35;;;1.88;;
42666;SDS011;28280;49.646;14.130;2022-09-09T08:27:55;2.95;;;1.70;;
42666;SDS011;28280;49.646;14.130;2022-09-09T08:33:27;3.20;;;1.80;;
42666;SDS011;28280;49.646;14.130;2022-09-09T08:38:58;3.55;;;1.67;;
42666;SDS011;28280;49.646;14.130;2022-09-09T08:50:24;9.25;;;1.90;;
42666;SDS011;28280;49.646;14.130;2022-09-09T08:56:08;1.63;;;1.30;;
42666;SDS011;28280;49.646;14.130;2022-09-09T09:19:20;4.55;;;2.40;;
42666;SDS011;28280;49.646;14.130;2022-09-09T09:25:14;2.60;;;1.80;;
42666;SDS011;28280;49.646;14.130;2022-09-09T09:31:05;2.28;;;1.52;;
42666;SDS011;28280;49.646;14.130;2022-09-09T09:36:41;5.18;;;2.85;;
42666;SDS011;28280;49.646;14.130;2022-09-09T09:42:20;5.57;;;2.70;;
42666;SDS011;28280;49.646;14.130;2022-09-09T09:53:39;2.35;;;1.60;;
42666;SDS011;28280;49.646;14.130;2022-09-09T10:05:16;2.15;;;1.50;;
42666;SDS011;28280;49.646;14.130;2022-09-09T10:22:44;2.33;;;1.30;;
42666;SDS011;28280;49.646;14.130;2022-09-09T10:28:23;2.38;;;1.30;;
42666;SDS011;28280;49.646;14.130;2022-09-09T10:39:46;2.28;;;1.20;;
42666;SDS011;28280;49.646;14.130;2022-09-09T10:45:20;4.53;;;1.27;;
42666;SDS011;28280;49.646;14.130;2022-09-09T10:51:17;2.58;;;1.10;;
42666;SDS011;28280;49.646;14.130;2022-09-09T10:57:22;3.33;;;1.30;;
42666;SDS011;28280;49.646;14.130;2022-09-09T11:03:13;2.60;;;1.10;;
42666;SDS011;28280;49.646;14.130;2022-09-09T11:08:49;1.85;;;0.93;;
42666;SDS011;28280;49.646;14.130;2022-09-09T11:14:28;1.63;;;1.00;;
42666;SDS011;28280;49.646;14.130;2022-09-09T11:20:10;2.85;;;1.17;;
42666;SDS011;28280;49.646;14.130;2022-09-09T11:25:43;2.08;;;1.20;;
42666;SDS011;28280;49.646;14.130;2022-09-09T11:31:29;4.90;;;1.73;;
42666;SDS011;28280;49.646;14.130;2022-09-09T11:37:12;4.47;;;1.50;;
42666;SDS011;28280;49.646;14.130;2022-09-09T11:48:59;3.97;;;1.60;;
42666;SDS011;28280;49.646;14.130;2022-09-09T11:54:32;5.50;;;1.40;;
42666;SDS011;28280;49.646;14.130;2022-09-09T12:00:05;2.85;;;1.33;;
42666;SDS011;28280;49.646;14.130;2022-09-09T12:05:44;5.10;;;1.20;;
42666;SDS011;28280;49.646;14.130;2022-09-09T12:11:26;5.38;;;1.40;;
42666;SDS011;28280;49.646;14.130;2022-09-09T12:16:58;8.15;;;1.30;;
42666;SDS011;28280;49.646;14.130;2022-09-09T12:34:40;2.58;;;1.17;;
42666;SDS011;28280;49.646;14.130;2022-09-09T12:40:27;7.85;;;1.77;;
42666;SDS011;28280;49.646;14.130;2022-09-09T12:46:04;2.72;;;1.30;;
42666;SDS011;28280;49.646;14.130;2022-09-09T12:51:39;3.40;;;1.10;;
42666;SDS011;28280;49.646;14.130;2022-09-09T12:57:14;2.00;;;1.08;;
42666;SDS011;28280;49.646;14.130;2022-09-09T13:08:24;3.25;;;1.13;;
42666;SDS011;28280;49.646;14.130;2022-09-09T13:13:57;3.35;;;1.23;;
42666;SDS011;28280;49.646;14.130;2022-09-09T13:19:29;1.85;;;1.15;;
42666;SDS011;28280;49.646;14.130;2022-09-09T13:25:17;2.70;;;1.13;;
42666;SDS011;28280;49.646;14.130;2022-09-09T13:30:59;1.73;;;1.20;;
42666;SDS011;28280;49.646;14.130;2022-09-09T13:36:34;3.42;;;1.20;;
42666;SDS011;28280;49.646;14.130;2022-09-09T13:42:05;2.42;;;1.15;;
42666;SDS011;28280;49.646;14.130;2022-09-09T13:47:37;1.80;;;1.00;;
42666;SDS011;28280;49.646;14.130;2022-09-09T13:53:09;3.45;;;1.27;;
42666;SDS011;28280;49.646;14.130;2022-09-09T13:58:40;2.05;;;1.35;;
42666;SDS011;28280;49.646;14.130;2022-09-09T14:04:11;3.22;;;1.10;;
42666;SDS011;28280;49.646;14.130;2022-09-09T14:09:43;3.45;;;1.20;;
42666;SDS011;28280;49.646;14.130;2022-09-09T14:15:15;3.17;;;1.77;;
42666;SDS011;28280;49.646;14.130;2022-09-09T14:20:47;2.33;;;1.30;;
42666;SDS011;28280;49.646;14.130;2022-09-09T14:26:19;4.63;;;1.20;;
42666;SDS011;28280;49.646;14.130;2022-09-09T14:31:51;2.72;;;1.33;;
42666;SDS011;28280;49.646;14.130;2022-09-09T14:37:22;4.65;;;1.17;;
42666;SDS011;28280;49.646;14.130;2022-09-09T14:42:54;2.28;;;1.10;;
42666;SDS011;28280;49.646;14.130;2022-09-09T14:48:28;6.70;;;1.75;;
42666;SDS011;28280;49.646;14.130;2022-09-09T14:54:00;3.20;;;1.10;;
42666;SDS011;28280;49.646;14.130;2022-09-09T14:59:32;2.28;;;1.25;;
42666;SDS011;28280;49.646;14.130;2022-09-09T15:05:05;4.00;;;1.40;;
42666;SDS011;28280;49.646;14.130;2022-09-09T15:10:36;2.90;;;1.15;;
42666;SDS011;28280;49.646;14.130;2022-09-09T15:16:10;3.05;;;1.10;;
42666;SDS011;28280;49.646;14.130;2022-09-09T15:21:45;3.55;;;1.20;;
42666;SDS011;28280;49.646;14.130;2022-09-09T15:27:16;2.20;;;1.20;;
42666;SDS011;28280;49.646;14.130;2022-09-09T15:32:48;4.13;;;1.10;;
42666;SDS011;28280;49.646;14.130;2022-09-09T15:38:19;2.05;;;1.10;;
42666;SDS011;28280;49.646;14.130;2022-09-09T15:43:52;2.88;;;1.10;;
42666;SDS011;28280;49.646;14.130;2022-09-09T15:49:27;2.13;;;1.00;;
42666;SDS011;28280;49.646;14.130;2022-09-09T15:54:58;4.63;;;1.20;;
42666;SDS011;28280;49.646;14.130;2022-09-09T16:00:30;2.27;;;1.20;;
42666;SDS011;28280;49.646;14.130;2022-09-09T16:06:03;1.88;;;1.20;;
42666;SDS011;28280;49.646;14.130;2022-09-09T16:11:36;1.30;;;1.10;;
42666;SDS011;28280;49.646;14.130;2022-09-09T16:17:07;2.80;;;1.20;;
42666;SDS011;28280;49.646;14.130;2022-09-09T16:22:39;1.85;;;1.20;;
42666;SDS011;28280;49.646;14.130;2022-09-09T16:28:10;1.63;;;1.05;;
42666;SDS011;28280;49.646;14.130;2022-09-09T16:33:42;2.83;;;1.40;;
42666;SDS011;28280;49.646;14.130;2022-09-09T16:39:14;1.50;;;1.00;;
42666;SDS011;28280;49.646;14.130;2022-09-09T16:44:46;2.17;;;1.15;;
42666;SDS011;28280;49.646;14.130;2022-09-09T16:50:18;2.53;;;1.20;;
42666;SDS011;28280;49.646;14.130;2022-09-09T16:55:49;3.60;;;1.45;;
42666;SDS011;28280;49.646;14.130;2022-09-09T17:01:25;3.28;;;0.90;;
42666;SDS011;28280;49.646;14.130;2022-09-09T17:06:58;2.65;;;1.40;;
42666;SDS011;28280;49.646;14.130;2022-09-09T17:12:31;1.65;;;1.10;;
42666;SDS011;28280;49.646;14.130;2022-09-09T17:18:04;1.42;;;1.10;;
42666;SDS011;28280;49.646;14.130;2022-09-09T17:23:35;2.47;;;1.10;;
42666;SDS011;28280;49.646;14.130;2022-09-09T17:29:08;1.85;;;1.23;;
42666;SDS011;28280;49.646;14.130;2022-09-09T17:34:40;2.55;;;1.48;;
42666;SDS011;28280;49.646;14.130;2022-09-09T17:40:11;2.63;;;1.17;;
42666;SDS011;28280;49.646;14.130;2022-09-09T17:45:42;3.28;;;1.33;;
42666;SDS011;28280;49.646;14.130;2022-09-09T17:51:21;3.63;;;1.30;;
42666;SDS011;28280;49.646;14.130;2022-09-09T17:56:58;1.95;;;1.23;;
42666;SDS011;28280;49.646;14.130;2022-09-09T18:02:30;2.50;;;1.40;;
42666;SDS011;28280;49.646;14.130;2022-09-09T18:08:01;1.60;;;1.10;;
42666;SDS011;28280;49.646;14.130;2022-09-09T18:13:33;2.67;;;1.20;;
42666;SDS011;28280;49.646;14.130;2022-09-09T18:19:06;1.77;;;1.00;;
42666;SDS011;28280;49.646;14.130;2022-09-09T18:24:39;2.90;;;1.17;;
42666;SDS011;28280;49.646;14.130;2022-09-09T18:30:11;2.58;;;1.20;;
42666;SDS011;28280;49.646;14.130;2022-09-09T18:35:42;11.13;;;1.70;;
42666;SDS011;28280;49.646;14.130;2022-09-09T18:41:18;5.07;;;1.30;;
42666;SDS011;28280;49.646;14.130;2022-09-09T18:46:53;1.67;;;1.00;;
42666;SDS011;28280;49.646;14.130;2022-09-09T18:52:25;1.80;;;1.10;;
42666;SDS011;28280;49.646;14.130;2022-09-09T18:57:57;2.85;;;1.02;;
42666;SDS011;28280;49.646;14.130;2022-09-09T19:03:29;2.13;;;0.90;;
42666;SDS011;28280;49.646;14.130;2022-09-09T19:09:01;2.03;;;1.00;;
42666;SDS011;28280;49.646;14.130;2022-09-09T19:14:34;2.33;;;1.20;;
42666;SDS011;28280;49.646;14.130;2022-09-09T19:20:05;1.48;;;0.90;;
42666;SDS011;28280;49.646;14.130;2022-09-09T19:25:38;1.88;;;1.00;;
42666;SDS011;28280;49.646;14.130;2022-09-09T19:31:10;2.58;;;1.10;;
42666;SDS011;28280;49.646;14.130;2022-09-09T19:36:41;3.50;;;1.27;;
42666;SDS011;28280;49.646;14.130;2022-09-09T19:42:13;4.38;;;1.20;;
42666;SDS011;28280;49.646;14.130;2022-09-09T19:47:44;2.58;;;1.00;;
42666;SDS011;28280;49.646;14.130;2022-09-09T19:53:15;3.38;;;1.08;;
42666;SDS011;28280;49.646;14.130;2022-09-09T19:58:48;2.22;;;1.20;;
42666;SDS011;28280;49.646;14.130;2022-09-09T20:04:21;3.17;;;1.40;;
42666;SDS011;28280;49.646;14.130;2022-09-09T20:09:56;2.63;;;1.23;;
42666;SDS011;28280;49.646;14.130;2022-09-09T20:15:27;1.42;;;0.93;;
42666;SDS011;28280;49.646;14.130;2022-09-09T20:21:12;1.50;;;0.90;;
42666;SDS011;28280;49.646;14.130;2022-09-09T20:26:46;2.10;;;1.23;;
42666;SDS011;28280;49.646;14.130;2022-09-09T20:32:28;3.10;;;1.10;;
42666;SDS011;28280;49.646;14.130;2022-09-09T20:38:00;2.80;;;1.02;;
42666;SDS011;28280;49.646;14.130;2022-09-09T20:43:32;1.85;;;0.93;;
42666;SDS011;28280;49.646;14.130;2022-09-09T20:49:04;2.75;;;1.00;;
42666;SDS011;28280;49.646;14.130;2022-09-09T20:54:38;1.65;;;1.00;;
42666;SDS011;28280;49.646;14.130;2022-09-09T21:00:10;1.13;;;0.85;;
42666;SDS011;28280;49.646;14.130;2022-09-09T21:05:42;2.05;;;0.88;;
42666;SDS011;28280;49.646;14.130;2022-09-09T21:11:15;1.85;;;1.25;;
42666;SDS011;28280;49.646;14.130;2022-09-09T21:16:47;2.17;;;0.80;;
42666;SDS011;28280;49.646;14.130;2022-09-09T21:22:18;1.15;;;0.73;;
42666;SDS011;28280;49.646;14.130;2022-09-09T21:27:49;1.23;;;0.70;;
42666;SDS011;28280;49.646;14.130;2022-09-09T21:33:21;1.52;;;0.75;;
42666;SDS011;28280;49.646;14.130;2022-09-09T21:38:53;2.03;;;0.75;;
42666;SDS011;28280;49.646;14.130;2022-09-09T21:44:24;1.08;;;0.70;;
42666;SDS011;28280;49.646;14.130;2022-09-09T21:49:56;0.88;;;0.70;;
42666;SDS011;28280;49.646;14.130;2022-09-09T21:55:27;2.85;;;0.80;;
42666;SDS011;28280;49.646;14.130;2022-09-09T22:00:58;2.38;;;0.70;;
42666;SDS011;28280;49.646;14.130;2022-09-09T22:06:30;1.48;;;0.80;;
42666;SDS011;28280;49.646;14.130;2022-09-09T22:12:01;1.35;;;0.80;;
42666;SDS011;28280;49.646;14.130;2022-09-09T22:17:32;1.35;;;0.70;;
42666;SDS011;28280;49.646;14.130;2022-09-09T22:23:04;1.52;;;0.70;;
42666;SDS011;28280;49.646;14.130;2022-09-09T22:28:36;4.43;;;1.33;;
42666;SDS011;28280;49.646;14.130;2022-09-09T22:34:08;0.90;;;0.70;;
42666;SDS011;28280;49.646;14.130;2022-09-09T22:39:40;0.90;;;0.70;;
42666;SDS011;28280;49.646;14.130;2022-09-09T22:45:11;3.80;;;0.70;;
42666;SDS011;28280;49.646;14.130;2022-09-09T22:50:42;0.82;;;0.60;;
42666;SDS011;28280;49.646;14.130;2022-09-09T22:56:15;1.92;;;0.75;;
42666;SDS011;28280;49.646;14.130;2022-09-09T23:01:48;0.88;;;0.60;;
42666;SDS011;28280;49.646;14.130;2022-09-09T23:07:21;0.60;;;0.60;;
42666;SDS011;28280;49.646;14.130;2022-09-09T23:12:53;0.50;;;0.50;;
42666;SDS011;28280;49.646;14.130;2022-09-09T23:18:27;1.13;;;0.80;;
42666;SDS011;28280;49.646;14.130;2022-09-09T23:23:58;1.10;;;0.80;;
42666;SDS011;28280;49.646;14.130;2022-09-09T23:29:30;1.05;;;0.70;;
42666;SDS011;28280;49.646;14.130;2022-09-09T23:35:01;2.03;;;0.80;;
42666;SDS011;28280;49.646;14.130;2022-09-09T23:40:33;2.13;;;0.60;;
42666;SDS011;28280;49.646;14.130;2022-09-09T23:46:04;1.00;;;0.80;;
42666;SDS011;28280;49.646;14.130;2022-09-09T23:51:39;1.25;;;0.73;;
42666;SDS011;28280;49.646;14.130;2022-09-09T23:57:11;0.68;;;0.60;;
